Time;durP1;ratioP1;P1;durP2;ratioP2;P2;SDS_P1;SDS_P2;PMS_P1;PMS_P2;Temp;Humidity;BMP_temperature;BMP_pressure;BME280_temperature;BME280_humidity;BME280_pressure;Samples;Min_cycle;Max_cycle;Signal;HPM_P1;HPM_P2
2022/04/13 00:01:22;;;;;;;10.13;4.73;;;8.10;51.80;;;;;;5015226;28;20199;-68
2022/04/13 00:03:49;;;;;;;10.10;4.23;;;8.00;51.60;;;;;;5015833;28;21015;-68
2022/04/13 00:06:17;;;;;;;9.23;5.77;;;8.00;51.80;;;;;;5016956;28;20219;-69
2022/04/13 00:08:44;;;;;;;10.33;5.80;;;8.00;51.10;;;;;;5016159;28;20215;-69
2022/04/13 00:11:13;;;;;;;12.03;6.10;;;8.00;51.80;;;;;;5012036;28;20211;-67
2022/04/13 00:13:40;;;;;;;9.67;5.53;;;8.00;52.80;;;;;;5014300;28;20207;-68
2022/04/13 00:16:07;;;;;;;8.90;4.87;;;7.90;53.10;;;;;;5009153;28;20207;-67
2022/04/13 00:18:35;;;;;;;9.83;4.87;;;7.90;52.90;;;;;;5013097;28;20235;-68
2022/04/13 00:21:04;;;;;;;11.27;4.60;;;7.90;52.90;;;;;;5013765;28;20271;-68
2022/04/13 00:23:32;;;;;;;8.20;4.77;;;7.90;53.10;;;;;;5016091;28;20203;-69
2022/04/13 00:25:59;;;;;;;7.67;4.37;;;7.90;53.20;;;;;;5007870;28;20237;-68
2022/04/13 00:28:26;;;;;;;11.17;4.73;;;7.90;53.50;;;;;;5016052;28;20575;-67
2022/04/13 00:30:53;;;;;;;8.00;4.80;;;7.90;53.70;;;;;;5014051;28;20576;-68
2022/04/13 00:33:21;;;;;;;10.97;5.90;;;7.90;53.90;;;;;;5011011;28;20330;-67
2022/04/13 00:35:47;;;;;;;13.07;6.10;;;7.90;54.70;;;;;;5015608;28;20215;-68
2022/04/13 00:38:14;;;;;;;10.10;5.57;;;7.90;54.30;;;;;;5015683;28;20297;-70
2022/04/13 00:40:42;;;;;;;12.73;6.80;;;7.80;54.30;;;;;;5013487;28;20275;-68
2022/04/13 00:43:11;;;;;;;14.20;6.00;;;7.90;54.50;;;;;;5015516;28;20282;-70
2022/04/13 00:45:38;;;;;;;14.50;6.17;;;7.80;55.00;;;;;;5014967;28;20212;-69
2022/04/13 00:48:06;;;;;;;11.30;5.73;;;7.80;55.20;;;;;;5015178;28;20690;-67
2022/04/13 00:50:33;;;;;;;10.27;6.07;;;7.80;55.30;;;;;;5014888;28;20261;-67
2022/04/13 00:53:03;;;;;;;18.43;6.50;;;7.80;55.30;;;;;;5015367;28;20206;-68
2022/04/13 00:55:31;;;;;;;10.97;6.97;;;7.80;55.30;;;;;;5015385;28;20620;-68
2022/04/13 00:58:01;;;;;;;10.80;6.57;;;7.80;55.40;;;;;;5012517;28;20720;-68
2022/04/13 01:00:29;;;;;;;13.17;6.60;;;7.80;55.50;;;;;;5006987;28;20207;-69
2022/04/13 01:02:58;;;;;;;12.20;6.73;;;7.80;55.80;;;;;;5007232;28;20207;-69
2022/04/13 01:05:25;;;;;;;12.60;6.67;;;7.80;56.10;;;;;;5016022;28;20211;-70
2022/04/13 01:07:53;;;;;;;9.73;5.70;;;7.80;56.30;;;;;;5016048;28;20313;-69
2022/04/13 01:10:20;;;;;;;14.57;6.83;;;7.80;56.40;;;;;;5007194;28;20211;-69
2022/04/13 01:12:47;;;;;;;15.13;6.80;;;7.70;56.60;;;;;;5014234;28;20283;-69
2022/04/13 01:15:15;;;;;;;11.20;6.40;;;7.70;56.80;;;;;;5015093;28;20208;-68
2022/04/13 01:17:44;;;;;;;11.23;5.97;;;7.70;56.90;;;;;;5015120;28;20266;-71
2022/04/13 01:20:12;;;;;;;10.83;5.67;;;7.70;57.60;;;;;;5014379;28;20672;-69
2022/04/13 01:22:40;;;;;;;11.53;6.07;;;7.70;57.00;;;;;;5011786;28;20656;-69
2022/04/13 01:25:08;;;;;;;11.30;6.33;;;7.70;57.10;;;;;;5014504;28;20203;-69
2022/04/13 01:27:35;;;;;;;10.03;6.17;;;7.70;57.20;;;;;;5008362;28;20311;-68
2022/04/13 01:30:06;;;;;;;8.37;5.73;;;7.80;57.40;;;;;;5012492;28;20211;-69
2022/04/13 01:32:33;;;;;;;11.50;6.17;;;7.70;57.60;;;;;;5014807;28;20731;-69
2022/04/13 01:35:00;;;;;;;13.07;6.50;;;7.70;57.60;;;;;;5014892;28;20230;-69
2022/04/13 01:37:27;;;;;;;13.57;5.93;;;7.70;57.70;;;;;;5016059;28;20234;-68
2022/04/13 01:39:55;;;;;;;12.90;5.80;;;7.70;57.80;;;;;;5014837;28;20317;-69
2022/04/13 01:42:22;;;;;;;10.70;6.57;;;7.70;58.60;;;;;;5014307;28;20215;-70
2022/04/13 01:44:49;;;;;;;13.67;6.83;;;7.70;58.10;;;;;;5013935;28;20217;-68
2022/04/13 01:47:16;;;;;;;8.80;5.93;;;7.60;58.30;;;;;;5013996;28;20234;-70
2022/04/13 01:49:43;;;;;;;13.37;6.43;;;7.60;58.30;;;;;;5012959;28;20239;-69
2022/04/13 01:52:11;;;;;;;13.77;5.90;;;7.60;58.40;;;;;;5014121;28;20210;-68
2022/04/13 01:54:38;;;;;;;11.63;6.30;;;7.60;58.50;;;;;;5014413;28;20715;-69
2022/04/13 01:57:06;;;;;;;12.17;6.97;;;7.50;58.60;;;;;;5014166;28;20234;-69
2022/04/13 01:59:33;;;;;;;14.07;7.57;;;7.60;58.80;;;;;;5013565;28;20210;-68
2022/04/13 02:02:02;;;;;;;12.37;7.53;;;7.50;58.80;;;;;;5003927;28;20231;-69
2022/04/13 02:04:29;;;;;;;14.77;7.73;;;7.50;59.00;;;;;;5004334;28;20211;-69
2022/04/13 02:06:56;;;;;;;13.10;7.63;;;7.60;59.20;;;;;;5014576;28;20233;-69
2022/04/13 02:09:22;;;;;;;12.53;7.57;;;7.50;59.40;;;;;;5014748;28;20266;-68
2022/04/13 02:11:49;;;;;;;11.83;7.20;;;7.50;60.10;;;;;;5014249;28;20619;-69
2022/04/13 02:14:18;;;;;;;11.97;7.27;;;7.50;59.60;;;;;;5013263;28;20309;-69
2022/04/13 02:16:45;;;;;;;14.70;6.53;;;7.50;59.80;;;;;;5013476;28;20209;-70
2022/04/13 02:19:12;;;;;;;14.87;7.20;;;7.40;59.80;;;;;;5013665;28;20199;-69
2022/04/13 02:21:40;;;;;;;12.93;7.23;;;7.40;60.00;;;;;;5014313;28;20237;-69
2022/04/13 02:24:07;;;;;;;14.63;7.87;;;7.40;60.10;;;;;;5013408;28;20207;-69
2022/04/13 02:26:34;;;;;;;12.77;6.83;;;7.40;60.20;;;;;;5014903;28;20227;-69
2022/04/13 02:29:01;;;;;;;13.77;8.47;;;7.30;60.50;;;;;;5013588;28;20211;-69
2022/04/13 02:31:30;;;;;;;14.23;8.90;;;7.30;60.70;;;;;;5013416;28;20258;-69
2022/04/13 02:33:56;;;;;;;13.60;8.77;;;7.30;60.90;;;;;;5015473;28;20211;-69
2022/04/13 02:36:23;;;;;;;14.30;8.50;;;7.20;61.00;;;;;;5017810;28;20213;-69
2022/04/13 02:38:50;;;;;;;12.80;8.73;;;7.20;62.00;;;;;;5017392;28;20204;-69
2022/04/13 02:41:17;;;;;;;15.47;9.00;;;7.10;61.30;;;;;;5017249;28;20627;-69
2022/04/13 02:43:44;;;;;;;13.73;8.93;;;7.10;61.50;;;;;;5016302;28;20233;-69
2022/04/13 02:46:11;;;;;;;15.57;8.80;;;7.20;61.70;;;;;;5018004;28;20221;-69
2022/04/13 02:48:39;;;;;;;17.37;9.90;;;7.10;61.80;;;;;;5016971;28;20227;-69
2022/04/13 02:51:06;;;;;;;16.27;8.63;;;7.10;62.00;;;;;;5017865;28;20207;-69
2022/04/13 02:53:33;;;;;;;18.07;9.00;;;7.10;62.10;;;;;;5016431;28;20211;-69
2022/04/13 02:56:00;;;;;;;18.73;9.07;;;7.10;62.40;;;;;;5015877;28;20209;-68
2022/04/13 02:58:27;;;;;;;18.70;8.80;;;7.10;62.50;;;;;;5016047;28;20235;-69
2022/04/13 03:00:54;;;;;;;16.40;10.70;;;7.10;63.30;;;;;;5016177;28;20216;-69
2022/04/13 03:03:21;;;;;;;15.47;10.53;;;7.10;62.50;;;;;;5016746;28;20215;-69
2022/04/13 03:05:49;;;;;;;16.20;10.57;;;7.10;62.60;;;;;;5016400;28;20676;-69
2022/04/13 03:08:16;;;;;;;15.93;9.43;;;7.10;62.60;;;;;;5017296;28;20714;-68
2022/04/13 03:10:44;;;;;;;17.17;9.87;;;7.00;62.90;;;;;;5016872;28;20203;-69
2022/04/13 03:13:11;;;;;;;15.87;9.77;;;7.10;63.20;;;;;;5016322;28;20583;-68
2022/04/13 03:15:38;;;;;;;18.93;10.93;;;7.00;63.20;;;;;;5016218;28;20644;-67
2022/04/13 03:18:06;;;;;;;16.90;10.60;;;7.00;63.30;;;;;;5016470;28;20238;-68
2022/04/13 03:20:34;;;;;;;17.17;10.47;;;7.00;63.40;;;;;;5017024;28;20582;-68
2022/04/13 03:23:03;;;;;;;16.90;10.30;;;7.00;63.60;;;;;;5015928;28;20298;-68
2022/04/13 03:25:30;;;;;;;19.10;9.97;;;7.00;63.70;;;;;;5016013;28;20562;-68
2022/04/13 03:27:57;;;;;;;21.87;11.03;;;7.00;63.90;;;;;;5016793;28;20997;-69
2022/04/13 03:30:24;;;;;;;16.00;10.43;;;7.00;64.10;;;;;;5016570;28;20191;-68
2022/04/13 03:32:51;;;;;;;17.03;11.30;;;6.90;64.10;;;;;;5013777;28;20219;-69
2022/04/13 03:35:18;;;;;;;21.80;10.77;;;6.90;64.30;;;;;;5015533;28;20699;-68
2022/04/13 03:37:45;;;;;;;15.33;10.33;;;6.90;64.50;;;;;;5016155;28;20218;-68
2022/04/13 03:40:14;;;;;;;19.23;11.03;;;6.90;64.80;;;;;;5015564;28;20641;-69
2022/04/13 03:42:42;;;;;;;15.87;10.23;;;6.90;65.70;;;;;;5015288;28;20207;-70
2022/04/13 03:45:11;;;;;;;19.30;11.23;;;6.90;65.00;;;;;;5014107;28;20243;-69
2022/04/13 03:47:39;;;;;;;18.13;10.53;;;6.80;65.00;;;;;;5015224;28;20231;-69
2022/04/13 03:50:06;;;;;;;19.80;11.20;;;6.80;65.40;;;;;;5015708;28;20329;-69
2022/04/13 03:52:33;;;;;;;16.97;10.87;;;6.80;65.50;;;;;;5014338;28;20215;-69
2022/04/13 03:55:00;;;;;;;24.27;13.17;;;6.80;65.70;;;;;;5015273;28;20215;-70
2022/04/13 03:57:28;;;;;;;26.13;12.33;;;6.80;65.80;;;;;;5015869;28;20196;-68
2022/04/13 03:59:55;;;;;;;21.13;11.93;;;6.70;66.10;;;;;;5015126;28;20211;-69
2022/04/13 04:02:22;;;;;;;18.13;11.70;;;6.70;66.30;;;;;;5011784;28;20207;-69
2022/04/13 04:04:49;;;;;;;20.10;12.10;;;6.80;66.70;;;;;;5014965;28;20209;-68
2022/04/13 04:07:16;;;;;;;23.03;11.90;;;6.80;66.90;;;;;;5015969;28;20679;-70
2022/04/13 04:09:43;;;;;;;22.17;10.83;;;6.80;67.00;;;;;;5015613;28;20203;-68
2022/04/13 04:12:11;;;;;;;22.73;12.17;;;6.80;67.40;;;;;;5009068;28;20279;-68
2022/04/13 04:14:39;;;;;;;23.00;12.13;;;6.80;67.50;;;;;;5002616;28;20213;-67
2022/04/13 04:17:06;;;;;;;23.87;13.03;;;6.80;68.50;;;;;;5013179;28;20242;-69
2022/04/13 04:19:34;;;;;;;20.77;11.80;;;6.90;68.00;;;;;;5013449;28;20400;-68
2022/04/13 04:22:01;;;;;;;27.97;13.77;;;6.90;67.90;;;;;;5015177;28;20236;-70
2022/04/13 04:24:28;;;;;;;31.03;14.00;;;6.90;67.60;;;;;;5013434;28;20291;-69
2022/04/13 04:26:55;;;;;;;30.93;13.67;;;7.00;67.70;;;;;;5014123;28;20245;-69
2022/04/13 04:29:23;;;;;;;26.83;14.00;;;7.00;67.70;;;;;;5014612;28;20211;-68
2022/04/13 04:31:51;;;;;;;28.43;13.83;;;7.10;67.80;;;;;;5012873;28;20215;-69
2022/04/13 04:34:19;;;;;;;25.90;13.80;;;7.10;67.70;;;;;;5014178;28;20290;-69
2022/04/13 04:36:46;;;;;;;22.10;12.83;;;7.20;67.80;;;;;;5013835;28;20595;-68
2022/04/13 04:39:13;;;;;;;29.97;13.97;;;7.20;67.70;;;;;;5013546;28;20743;-68
2022/04/13 04:41:41;;;;;;;34.93;13.57;;;7.30;68.70;;;;;;5014458;28;20280;-68
2022/04/13 04:44:09;;;;;;;26.60;13.77;;;7.40;68.10;;;;;;5013666;28;20211;-69
2022/04/13 04:46:36;;;;;;;27.93;13.93;;;7.40;68.10;;;;;;5008941;28;20678;-68
2022/04/13 04:49:04;;;;;;;31.23;14.47;;;7.50;68.20;;;;;;5013107;28;20796;-68
2022/04/13 04:51:32;;;;;;;29.17;14.73;;;7.50;68.20;;;;;;5012874;28;20657;-69
2022/04/13 04:53:59;;;;;;;31.77;14.00;;;7.60;68.80;;;;;;5012671;28;20219;-68
2022/04/13 04:56:26;;;;;;;23.87;13.20;;;7.70;68.40;;;;;;5013239;28;20247;-68
2022/04/13 04:58:53;;;;;;;23.97;13.50;;;7.80;68.60;;;;;;5012328;28;20203;-68
2022/04/13 05:01:20;;;;;;;29.67;13.97;;;7.80;68.50;;;;;;5011531;28;20211;-69
2022/04/13 05:03:49;;;;;;;31.37;15.17;;;8.00;68.70;;;;;;5012408;28;20243;-68
2022/04/13 05:06:20;;;;;;;32.10;14.93;;;8.00;68.10;;;;;;5011423;28;20306;-68
2022/04/13 05:08:47;;;;;;;54.47;17.73;;;8.10;67.80;;;;;;5012551;28;20223;-69
2022/04/13 05:11:14;;;;;;;43.30;15.40;;;8.20;67.80;;;;;;5005000;28;20207;-68
2022/04/13 05:13:42;;;;;;;25.57;13.80;;;8.30;67.70;;;;;;5014017;28;20286;-69
2022/04/13 05:16:08;;;;;;;32.17;16.20;;;8.30;67.40;;;;;;5010835;28;20634;-68
2022/04/13 05:18:35;;;;;;;29.40;16.13;;;8.40;67.60;;;;;;5013026;28;20568;-69
2022/04/13 05:21:04;;;;;;;36.73;15.00;;;8.40;67.80;;;;;;5011454;28;21296;-69
2022/04/13 05:23:32;;;;;;;23.43;13.60;;;8.50;67.70;;;;;;5013771;28;20250;-70
2022/04/13 05:25:59;;;;;;;19.27;12.60;;;8.60;66.80;;;;;;5003547;28;20303;-68
2022/04/13 05:28:25;;;;;;;29.00;13.40;;;8.70;66.00;;;;;;5012660;28;20578;-69
2022/04/13 05:30:52;;;;;;;25.40;14.33;;;8.70;65.20;;;;;;5008414;28;20577;-69
2022/04/13 05:33:19;;;;;;;29.80;15.90;;;8.80;65.10;;;;;;5010908;28;20242;-69
2022/04/13 05:35:46;;;;;;;25.87;14.07;;;8.80;66.10;;;;;;5002100;28;20311;-69
2022/04/13 05:38:13;;;;;;;27.47;14.53;;;8.90;65.50;;;;;;5003768;28;20206;-69
2022/04/13 05:40:41;;;;;;;32.63;16.43;;;9.00;65.20;;;;;;4999872;28;20241;-68
2022/04/13 05:43:09;;;;;;;26.40;15.33;;;9.10;64.60;;;;;;5007393;28;20703;-70
2022/04/13 05:45:36;;;;;;;31.27;15.87;;;9.30;64.70;;;;;;5009496;28;20716;-70
2022/04/13 05:48:03;;;;;;;27.77;14.90;;;9.40;64.80;;;;;;5007960;28;20318;-69
2022/04/13 05:50:30;;;;;;;27.77;15.00;;;9.40;64.30;;;;;;5005149;28;20299;-68
2022/04/13 05:52:57;;;;;;;24.93;14.73;;;9.50;64.10;;;;;;5013021;28;20790;-69
2022/04/13 05:55:24;;;;;;;24.60;14.97;;;9.60;63.60;;;;;;5012471;28;20226;-69
2022/04/13 05:57:52;;;;;;;24.30;15.77;;;9.70;63.40;;;;;;5011845;28;20617;-69
2022/04/13 06:00:19;;;;;;;22.83;13.83;;;9.70;63.10;;;;;;5010318;28;20207;-70
2022/04/13 06:02:47;;;;;;;21.57;12.50;;;9.80;62.70;;;;;;5012805;28;20645;-69
2022/04/13 06:05:14;;;;;;;19.17;12.47;;;9.80;62.40;;;;;;5009313;28;20270;-68
2022/04/13 06:07:41;;;;;;;21.87;13.57;;;9.90;62.00;;;;;;5012444;28;20759;-69
2022/04/13 06:10:09;;;;;;;22.27;12.97;;;10.00;60.70;;;;;;5014536;28;20207;-72
2022/04/13 06:12:36;;;;;;;21.73;12.07;;;10.00;60.30;;;;;;5016197;28;20211;-70
2022/04/13 06:15:07;;;;;;;18.53;10.97;;;10.10;60.00;;;;;;5016268;28;20203;-69
2022/04/13 06:17:34;;;;;;;19.43;12.00;;;10.20;59.80;;;;;;5012667;28;20235;-70
2022/04/13 06:20:01;;;;;;;21.10;12.93;;;10.20;59.60;;;;;;5008143;28;20697;-70
2022/04/13 06:22:31;;;;;;;21.30;12.33;;;10.40;59.50;;;;;;5009080;28;20230;-71
2022/04/13 06:24:57;;;;;;;20.60;12.27;;;10.50;59.40;;;;;;5007418;28;20224;-71
2022/04/13 06:27:24;;;;;;;21.90;12.53;;;10.50;58.90;;;;;;5015373;28;20207;-69
2022/04/13 06:29:52;;;;;;;25.77;12.63;;;10.50;58.60;;;;;;5014417;28;20223;-69
2022/04/13 06:32:20;;;;;;;22.33;12.17;;;10.70;58.60;;;;;;5014793;28;20243;-70
2022/04/13 06:34:47;;;;;;;20.37;11.10;;;10.70;58.50;;;;;;5014632;28;20298;-70
2022/04/13 06:37:14;;;;;;;17.33;11.40;;;10.80;58.50;;;;;;5016648;28;20208;-70
2022/04/13 06:39:41;;;;;;;14.63;10.00;;;10.80;58.10;;;;;;5011744;28;20267;-68
2022/04/13 06:42:09;;;;;;;16.07;9.60;;;10.90;58.30;;;;;;5015642;28;20689;-69
2022/04/13 06:44:36;;;;;;;17.27;9.57;;;10.90;57.10;;;;;;5011071;28;20293;-71
2022/04/13 06:47:04;;;;;;;12.97;8.57;;;10.90;56.80;;;;;;5014207;28;20214;-70
2022/04/13 06:49:32;;;;;;;13.37;8.57;;;10.90;56.80;;;;;;5013557;28;20310;-68
2022/04/13 06:51:59;;;;;;;19.53;10.30;;;11.00;56.10;;;;;;5012992;28;20208;-70
2022/04/13 06:54:27;;;;;;;23.03;10.80;;;11.10;56.00;;;;;;5003502;28;20199;-70
2022/04/13 06:56:55;;;;;;;12.97;9.40;;;11.20;56.10;;;;;;5014146;28;20218;-70
2022/04/13 06:59:21;;;;;;;11.80;7.57;;;11.20;56.00;;;;;;5016854;28;20223;-69
2022/04/13 07:01:48;;;;;;;13.73;7.40;;;11.30;55.90;;;;;;5011916;28;20238;-72
2022/04/13 07:04:15;;;;;;;17.23;8.37;;;11.30;55.00;;;;;;5012568;28;20626;-69
2022/04/13 07:06:44;;;;;;;14.50;7.17;;;11.30;54.80;;;;;;5014649;28;20227;-70
2022/04/13 07:09:10;;;;;;;15.83;8.77;;;11.40;54.50;;;;;;5015968;28;20246;-69
2022/04/13 07:11:37;;;;;;;15.10;9.40;;;11.50;54.50;;;;;;5015612;28;20257;-69
2022/04/13 07:14:04;;;;;;;13.30;8.53;;;11.50;54.50;;;;;;5016150;28;20219;-69
2022/04/13 07:16:31;;;;;;;14.97;8.50;;;11.60;55.30;;;;;;5016440;28;20265;-69
2022/04/13 07:18:58;;;;;;;17.10;8.87;;;11.70;54.60;;;;;;5014518;28;20298;-69
2022/04/13 07:21:25;;;;;;;15.57;9.57;;;11.70;54.30;;;;;;5015888;28;20227;-68
2022/04/13 07:23:53;;;;;;;14.20;7.23;;;11.80;54.10;;;;;;5016040;28;20644;-68
2022/04/13 07:26:20;;;;;;;9.63;6.23;;;11.90;54.10;;;;;;5012540;28;20698;-70
2022/04/13 07:28:47;;;;;;;11.33;7.50;;;12.00;53.80;;;;;;5015845;28;20644;-69
2022/04/13 07:31:14;;;;;;;17.57;7.80;;;12.10;53.40;;;;;;5015459;28;20266;-69
2022/04/13 07:33:40;;;;;;;13.43;7.20;;;12.30;53.50;;;;;;5016977;28;20635;-70
2022/04/13 07:36:07;;;;;;;11.63;7.63;;;12.30;53.20;;;;;;5016665;28;20809;-69
2022/04/13 07:38:34;;;;;;;11.47;6.70;;;12.40;53.00;;;;;;5016145;28;20238;-71
2022/04/13 07:41:03;;;;;;;8.57;5.03;;;12.50;52.90;;;;;;5005644;28;20330;-69
2022/04/13 07:43:30;;;;;;;9.60;6.47;;;12.40;52.30;;;;;;5015329;28;20218;-69
2022/04/13 07:45:57;;;;;;;12.00;6.33;;;12.50;52.30;;;;;;5015937;28;20744;-70
2022/04/13 07:48:24;;;;;;;7.80;4.60;;;12.50;52.10;;;;;;5015655;28;20694;-70
2022/04/13 07:50:51;;;;;;;8.30;4.23;;;12.60;51.90;;;;;;5016097;28;20645;-70
2022/04/13 07:53:18;;;;;;;8.57;5.00;;;12.70;51.50;;;;;;5016270;28;20255;-69
2022/04/13 07:55:44;;;;;;;8.10;4.20;;;12.70;51.10;;;;;;5015323;28;20215;-69
2022/04/13 07:58:13;;;;;;;7.77;4.53;;;12.80;50.90;;;;;;5014900;28;20669;-69
2022/04/13 08:00:40;;;;;;;6.50;4.57;;;12.80;50.40;;;;;;5015246;28;20294;-69
2022/04/13 08:03:07;;;;;;;6.97;4.40;;;12.80;50.10;;;;;;5015865;28;20628;-69
2022/04/13 08:05:34;;;;;;;8.20;5.13;;;12.90;50.10;;;;;;5014979;28;20626;-70
2022/04/13 08:08:00;;;;;;;7.40;4.67;;;12.90;50.10;;;;;;5015837;28;20209;-69
2022/04/13 08:10:27;;;;;;;7.30;4.50;;;13.00;50.10;;;;;;5014994;28;20283;-69
2022/04/13 08:12:54;;;;;;;8.67;4.10;;;13.10;49.70;;;;;;5013514;28;20234;-69
2022/04/13 08:15:24;;;;;;;7.50;4.53;;;13.10;49.30;;;;;;5014484;28;20685;-69
2022/04/13 08:17:51;;;;;;;7.30;4.87;;;13.20;49.50;;;;;;5014790;28;20277;-69
2022/04/13 08:20:18;;;;;;;8.33;4.67;;;13.30;49.60;;;;;;5015464;28;20699;-71
2022/04/13 08:22:47;;;;;;;6.33;3.60;;;13.30;49.70;;;;;;5008561;28;20591;-70
2022/04/13 08:25:14;;;;;;;7.60;3.93;;;13.40;49.30;;;;;;5013890;28;20294;-70
2022/04/13 08:27:41;;;;;;;6.13;3.40;;;13.60;49.10;;;;;;5015174;28;20207;-69
2022/04/13 08:30:09;;;;;;;5.97;4.03;;;13.60;48.50;;;;;;5014360;28;20319;-69
2022/04/13 08:32:37;;;;;;;6.77;3.90;;;13.50;48.30;;;;;;5015525;28;20547;-70
2022/04/13 08:35:05;;;;;;;7.20;3.33;;;13.60;48.50;;;;;;5005951;28;20237;-69
2022/04/13 08:37:34;;;;;;;7.97;4.23;;;13.80;48.50;;;;;;5015749;28;20203;-70
2022/04/13 08:40:01;;;;;;;9.90;5.20;;;13.90;48.20;;;;;;5014647;28;20239;-70
2022/04/13 08:42:35;;;;;;;7.00;3.80;;;14.10;48.10;;;;;;5014784;28;20295;-70
2022/04/13 08:45:09;;;;;;;6.00;4.00;;;14.40;48.20;;;;;;5015600;28;20234;-69
2022/04/13 08:47:42;;;;;;;5.20;3.50;;;14.60;47.80;;;;;;5014754;28;20249;-69
2022/04/13 08:50:10;;;;;;;5.30;3.23;;;14.70;47.10;;;;;;5014011;28;20596;-68
2022/04/13 08:52:39;;;;;;;5.50;3.73;;;14.70;46.00;;;;;;5014049;28;20269;-68
2022/04/13 08:55:08;;;;;;;6.93;4.60;;;14.80;45.80;;;;;;5014091;28;20600;-69
2022/04/13 08:57:37;;;;;;;7.23;3.93;;;14.80;45.90;;;;;;5014546;28;20618;-70
2022/04/13 09:00:09;;;;;;;8.73;4.67;;;14.90;46.20;;;;;;5014086;28;20310;-69
2022/04/13 09:02:53;;;;;;;9.53;4.77;;;15.00;46.40;;;;;;5013866;28;20203;-70
2022/04/13 09:05:24;;;;;;;7.73;4.67;;;15.30;46.50;;;;;;5011095;28;20203;-69
2022/04/13 09:07:59;;;;;;;9.10;5.20;;;15.50;46.10;;;;;;5012070;28;20234;-69
2022/04/13 09:10:27;;;;;;;7.13;5.00;;;15.70;46.00;;;;;;5013216;28;20250;-69
2022/04/13 09:12:57;;;;;;;7.87;4.90;;;15.90;45.90;;;;;;5011731;28;20278;-70
2022/04/13 09:15:25;;;;;;;6.03;4.10;;;16.10;45.70;;;;;;5012757;28;20209;-69
2022/04/13 09:17:53;;;;;;;7.40;4.33;;;16.20;45.20;;;;;;5013114;28;20203;-69
2022/04/13 09:20:20;;;;;;;5.27;3.90;;;16.40;44.80;;;;;;5014062;28;20302;-69
2022/04/13 09:22:50;;;;;;;6.40;4.00;;;16.60;44.60;;;;;;5014522;28;20213;-69
2022/04/13 09:25:20;;;;;;;6.78;4.13;;;16.80;44.10;;;;;;5009463;28;20200;-69
2022/04/13 09:27:49;;;;;;;9.27;5.20;;;16.90;43.70;;;;;;5009239;28;20223;-69
2022/04/13 09:30:16;;;;;;;9.00;4.88;;;17.20;43.30;;;;;;5014058;28;20246;-70
2022/04/13 09:32:44;;;;;;;5.83;4.03;;;17.30;42.90;;;;;;5013905;28;20787;-69
2022/04/13 09:35:12;;;;;;;6.30;4.10;;;17.50;42.90;;;;;;5013109;28;20729;-68
2022/04/13 09:37:40;;;;;;;6.68;3.97;;;17.60;42.30;;;;;;5013914;28;20286;-70
2022/04/13 09:40:08;;;;;;;5.90;3.90;;;17.70;42.90;;;;;;5012849;28;20239;-69
2022/04/13 09:42:36;;;;;;;7.47;4.35;;;18.00;42.50;;;;;;5005028;28;20211;-71
2022/04/13 09:45:04;;;;;;;6.93;3.85;;;18.20;42.20;;;;;;5004017;28;20216;-70
2022/04/13 09:47:33;;;;;;;6.50;4.13;;;18.30;41.10;;;;;;5013817;28;20215;-70
2022/04/13 09:50:00;;;;;;;4.78;3.47;;;18.40;40.60;;;;;;5012289;28;20269;-70
2022/04/13 09:52:33;;;;;;;6.22;4.22;;;18.40;40.10;;;;;;5006540;28;20656;-70
2022/04/13 09:55:00;;;;;;;5.88;4.40;;;18.70;39.80;;;;;;5013014;28;20211;-70
2022/04/13 09:57:28;;;;;;;7.78;3.80;;;18.90;39.70;;;;;;5009216;28;20207;-70
2022/04/13 09:59:56;;;;;;;5.82;3.80;;;18.90;39.20;;;;;;5011103;28;20217;-70
2022/04/13 10:02:37;;;;;;;5.28;3.72;;;19.00;38.30;;;;;;5011580;28;20209;-71
2022/04/13 10:05:04;;;;;;;5.97;4.07;;;19.00;38.30;;;;;;5013503;28;20207;-70
2022/04/13 10:07:33;;;;;;;5.78;4.70;;;19.10;38.40;;;;;;5013145;28;20744;-71
2022/04/13 10:10:00;;;;;;;6.03;3.97;;;19.20;37.90;;;;;;5005581;28;20235;-71
2022/04/13 10:12:27;;;;;;;8.80;5.68;;;19.40;37.20;;;;;;5012384;28;20238;-70
2022/04/13 10:15:06;;;;;;;6.25;4.45;;;19.30;38.30;;;;;;5004555;28;20246;-72
2022/04/13 10:17:34;;;;;;;9.35;4.10;;;19.20;38.80;;;;;;5009456;28;20234;-71
2022/04/13 10:20:01;;;;;;;4.68;3.78;;;19.10;38.80;;;;;;5005265;28;20200;-71
2022/04/13 10:22:28;;;;;;;7.95;4.40;;;19.10;38.10;;;;;;5010191;28;20811;-70
2022/04/13 10:24:56;;;;;;;6.65;4.20;;;19.10;38.80;;;;;;5007959;28;20208;-73
2022/04/13 10:27:27;;;;;;;5.10;4.28;;;19.30;38.60;;;;;;5004265;28;20221;-71
2022/04/13 10:29:54;;;;;;;5.18;4.38;;;19.60;38.10;;;;;;5008362;28;20596;-69
2022/04/13 10:32:24;;;;;;;5.50;4.40;;;19.70;38.10;;;;;;5012536;28;20207;-74
2022/04/13 10:34:53;;;;;;;7.80;4.40;;;19.90;38.10;;;;;;5005649;28;20298;-70
2022/04/13 10:37:22;;;;;;;4.95;4.30;;;19.90;38.10;;;;;;5006880;28;20811;-72
2022/04/13 10:39:52;;;;;;;6.80;4.75;;;19.90;37.90;;;;;;5007328;28;21368;-72
2022/04/13 10:42:22;;;;;;;6.40;4.50;;;20.20;38.00;;;;;;5001004;28;20209;-72
2022/04/13 10:44:51;;;;;;;4.88;4.10;;;20.50;37.80;;;;;;5007787;28;20315;-71
2022/04/13 10:47:25;;;;;;;7.63;4.35;;;20.40;37.10;;;;;;5002859;28;20736;-72
2022/04/13 10:49:56;;;;;;;5.05;4.30;;;20.40;36.90;;;;;;5014061;28;20239;-71
2022/04/13 10:52:29;;;;;;;7.07;4.28;;;20.40;37.20;;;;;;5012287;28;20250;-71
2022/04/13 10:55:03;;;;;;;7.85;4.32;;;20.40;37.40;;;;;;5015251;28;20207;-71
2022/04/13 10:57:36;;;;;;;6.97;4.65;;;20.50;37.90;;;;;;5014074;28;20209;-71
2022/04/13 11:00:07;;;;;;;6.97;5.40;;;20.60;37.30;;;;;;5012199;28;20203;-71
2022/04/13 11:02:43;;;;;;;6.50;4.90;;;20.60;37.30;;;;;;5015985;28;20540;-71
2022/04/13 11:05:10;;;;;;;8.73;4.85;;;20.70;37.40;;;;;;5017314;28;20296;-70
2022/04/13 11:07:39;;;;;;;7.32;5.32;;;20.70;37.40;;;;;;5015734;28;20211;-70
2022/04/13 11:10:11;;;;;;;8.02;5.28;;;20.50;37.30;;;;;;5012671;28;20223;-71
2022/04/13 11:12:40;;;;;;;7.13;5.22;;;20.30;37.90;;;;;;5014170;28;20207;-71
2022/04/13 11:15:07;;;;;;;5.47;4.22;;;20.20;37.70;;;;;;5014266;28;20302;-71
2022/04/13 11:17:41;;;;;;;6.10;4.60;;;20.30;37.80;;;;;;5012261;28;20246;-71
2022/04/13 11:20:19;;;;;;;8.90;4.90;;;20.60;37.20;;;;;;5015722;28;20913;-71
2022/04/13 11:22:47;;;;;;;5.70;4.25;;;20.80;36.30;;;;;;5014472;28;20203;-72
2022/04/13 11:25:44;;;;;;;6.57;4.20;;;20.80;35.20;;;;;;5010969;28;20231;-70
2022/04/13 11:28:22;;;;;;;4.57;4.05;;;20.80;35.20;;;;;;5010722;28;20203;-71
2022/04/13 11:31:10;;;;;;;8.70;5.15;;;20.70;34.80;;;;;;5009051;28;20226;-71
2022/04/13 11:33:53;;;;;;;6.30;4.20;;;20.50;35.00;;;;;;5002802;28;20362;-70
2022/04/13 11:36:23;;;;;;;7.13;4.85;;;20.30;35.20;;;;;;5006948;28;20207;-70
2022/04/13 11:38:52;;;;;;;6.70;4.20;;;20.00;35.00;;;;;;5006802;28;20211;-71
2022/04/13 11:41:19;;;;;;;6.35;4.72;;;19.90;35.60;;;;;;5014934;28;20207;-70
2022/04/13 11:43:48;;;;;;;6.38;4.60;;;19.90;35.70;;;;;;5012232;28;20215;-69
2022/04/13 11:46:35;;;;;;;5.65;4.30;;;19.90;35.80;;;;;;5012852;28;20213;-69
2022/04/13 11:49:03;;;;;;;8.95;5.82;;;20.00;35.80;;;;;;5013792;28;20537;-70
2022/04/13 11:51:30;;;;;;;6.38;4.20;;;20.30;35.90;;;;;;5014798;28;20258;-69
2022/04/13 11:54:06;;;;;;;5.38;4.30;;;20.30;35.40;;;;;;5007560;28;20277;-70
2022/04/13 11:56:34;;;;;;;7.07;4.65;;;20.20;35.00;;;;;;5014280;28;20229;-66
2022/04/13 11:59:02;;;;;;;7.22;4.10;;;20.20;34.80;;;;;;5012511;28;20659;-67
2022/04/13 12:01:30;;;;;;;4.20;3.47;;;20.20;35.30;;;;;;5002931;28;20203;-69
2022/04/13 12:03:58;;;;;;;6.60;4.20;;;20.10;34.60;;;;;;5011771;28;20235;-67
2022/04/13 12:06:26;;;;;;;7.45;4.30;;;20.10;34.60;;;;;;5013567;28;20575;-67
2022/04/13 12:08:55;;;;;;;6.43;3.80;;;20.10;34.20;;;;;;5003865;28;20215;-66
2022/04/13 12:11:24;;;;;;;6.18;3.92;;;20.20;34.00;;;;;;5011018;28;20219;-67
2022/04/13 12:13:53;;;;;;;4.10;3.70;;;20.00;34.10;;;;;;5008204;28;20211;-69
2022/04/13 12:16:23;;;;;;;4.93;3.75;;;19.80;33.70;;;;;;5011653;28;20298;-68
2022/04/13 12:18:51;;;;;;;6.15;3.92;;;19.60;33.60;;;;;;5011266;28;20284;-70
2022/04/13 12:21:21;;;;;;;5.30;4.20;;;19.50;33.30;;;;;;5012639;28;20245;-69
2022/04/13 12:23:48;;;;;;;5.47;3.80;;;19.30;33.80;;;;;;5014702;28;20214;-71
2022/04/13 12:26:16;;;;;;;5.25;3.47;;;19.20;34.00;;;;;;5005942;28;20213;-68
2022/04/13 12:28:42;;;;;;;6.65;4.00;;;19.20;34.10;;;;;;5011407;28;20290;-67
2022/04/13 12:31:11;;;;;;;5.43;3.90;;;19.30;33.70;;;;;;5010818;28;20551;-69
2022/04/13 12:33:41;;;;;;;3.60;3.03;;;19.30;34.00;;;;;;5013471;28;20329;-68
2022/04/13 12:36:10;;;;;;;6.20;4.00;;;19.30;33.50;;;;;;5013944;28;20298;-66
2022/04/13 12:38:38;;;;;;;7.95;4.03;;;19.30;34.40;;;;;;5008611;28;20211;-68
2022/04/13 12:41:10;;;;;;;6.57;4.25;;;19.30;34.10;;;;;;5010300;28;20314;-67
2022/04/13 12:43:39;;;;;;;6.60;4.30;;;19.20;34.60;;;;;;5012447;28;20211;-67
2022/04/13 12:46:11;;;;;;;5.18;4.13;;;19.00;35.50;;;;;;5013206;28;20235;-69
2022/04/13 12:48:39;;;;;;;7.40;4.63;;;18.90;35.20;;;;;;5011467;28;20218;-68